Hanjin Sanfrancisco — 3FXR — position and weather

sailwx.info

Track history (hours):
 
Tides and Currents Weather Stations Pressure Air Temp Water Temp Dewpoint Dewpoint Depression Visibility Wind Speed Wind Dir Waves Ship Positions

Hanjin Sanfrancisco

Last reported at 2017-Mar-24 12:23 UTC. Time now 2017-Mar-24 14:08 UTC.
Position S 03°07' W 059°55'.

Length 289 m; draft 11.1 m.

Type: Cargo ship. MMSI: 351989000.

Date/timePositionNaut miles runAvg speedWind from/ knotsBaromVisibWave heightAir tempDewpointWater temp
2017-Mar-24 12:23S 03°07' W 059°55'0 0.0
2017-Mar-24 11:32S 03°07' W 059°55'0 0.0
2017-Mar-24 10:26S 03°07' W 059°55'0 0.0
2017-Mar-24 09:32S 03°07' W 059°55'0 0.0
2017-Mar-24 08:23S 03°07' W 059°55'0 0.0
2017-Mar-24 07:20S 03°07' W 059°55'0 0.0
2017-Mar-24 05:32S 03°07' W 059°55'0 0.0
2017-Mar-24 04:29S 03°07' W 059°55'0 0.0
2017-Mar-24 03:32S 03°07' W 059°55'0 0.0
2017-Mar-24 02:26S 03°07' W 059°55'0 0.0
2017-Mar-24 01:29S 03°07' W 059°55'0 0.0
2017-Mar-23 20:32S 03°07' W 059°55'0 0.0
2017-Mar-23 14:29S 03°07' W 059°55'0 0.0
2017-Mar-23 12:29S 03°07' W 059°55'0 0.0
2017-Mar-23 11:32S 03°07' W 059°55'0 0.0
2017-Mar-23 10:29S 03°07' W 059°55'0 0.0
2017-Mar-23 09:29S 03°07' W 059°55'0 0.0
2017-Mar-23 03:32S 03°07' W 059°55'0 0.0
2017-Mar-23 02:32S 03°07' W 059°55'0 0.0
2017-Mar-23 01:32S 03°07' W 059°55'0 0.0
2017-Mar-22 23:14S 03°07' W 059°55'0 0.0
2017-Mar-22 22:32S 03°07' W 059°55'0 0.0
2017-Mar-22 17:32S 03°07' W 059°55'0 0.0
2017-Mar-22 16:20S 03°07' W 059°55'0 0.0
2017-Mar-22 14:26S 03°07' W 059°55'0 0.0
2017-Mar-22 13:26S 03°07' W 059°55'0 0.0
2017-Mar-22 12:32S 03°07' W 059°55'0 0.0
2017-Mar-22 07:32S 03°07' W 059°55'0 0.0
2017-Mar-22 06:32S 03°07' W 059°55'0 0.0
2017-Mar-22 05:32S 03°07' W 059°55'0 0.0
2017-Mar-22 03:29S 03°07' W 059°55'0 0.0
2017-Mar-22 01:26S 03°07' W 059°55'0 0.0
2017-Mar-22 00:29S 03°07' W 059°55'0 0.0
2017-Mar-21 23:32S 03°07' W 059°55'0 0.0
2017-Mar-21 18:32S 03°07' W 059°55'0 0.0
2017-Mar-21 16:32S 03°07' W 059°55'0 0.0
2017-Mar-21 14:32S 03°07' W 059°55'0 0.0
2017-Mar-21 13:32S 03°07' W 059°55'0 0.0
2017-Mar-21 12:32S 03°07' W 059°55'0 0.0
2017-Mar-21 11:32S 03°07' W 059°55'0 0.1
2017-Mar-21 10:33S 03°07' W 059°55'1 1.0
2017-Mar-21 09:30S 03°08' W 059°55'0 0.0
2017-Mar-21 08:33S 03°08' W 059°55'0 0.0
2017-Mar-21 07:30S 03°08' W 059°55'0 0.0
2017-Mar-21 06:33S 03°08' W 059°55'0 0.0
2017-Mar-21 05:21S 03°08' W 059°55'0 0.0
2017-Mar-21 04:21S 03°08' W 059°55'0 0.0
2017-Mar-21 03:27S 03°08' W 059°55'0 0.0
2017-Mar-21 02:30S 03°08' W 059°55'0 0.0
2017-Mar-21 01:27S 03°08' W 059°55'0 0.0
2017-Mar-21 00:27S 03°08' W 059°55'  
2017-Mar-17 22:25S 00°14' W 051°19'910.1
2017-Mar-17 21:33S 00°08' W 051°13'8 7.1
2017-Mar-17 20:30S 00°04' W 051°07'0 0.1
2017-Mar-17 19:29S 00°04' W 051°07'0 0.2
2017-Mar-17 18:23S 00°04' W 051°07'0 0.0
2017-Mar-17 17:29S 00°04' W 051°07'0 0.0
2017-Mar-17 16:30S 00°04' W 051°07'0 0.0
2017-Mar-17 15:29S 00°04' W 051°07'0 0.0
2017-Mar-17 14:29S 00°04' W 051°07'0 0.0
2017-Mar-17 11:20S 00°04' W 051°07'0 0.1
2017-Mar-17 10:32S 00°04' W 051°07'0 0.0
2017-Mar-17 09:32S 00°04' W 051°07'0 0.0
2017-Mar-17 08:32S 00°04' W 051°07'0 0.1
2017-Mar-17 07:32S 00°04' W 051°07'0 0.1
2017-Mar-17 06:32S 00°04' W 051°07'0 0.3
2017-Mar-17 05:33S 00°04' W 051°06'5 4.8
2017-Mar-17 04:33S 00°01' W 051°02'10 9.7
2017-Mar-17 03:33N 00°07' W 050°57'9 8.5
2017-Mar-17 02:32N 00°10' W 050°49'  
Track history (hours):
 
Tides and Currents Weather Stations Pressure Air Temp Water Temp Dewpoint Dewpoint Depression Visibility Wind Speed Wind Dir Waves Ship Positions

Hanjin Sanfrancisco

Last reported at 2017-Mar-24 12:23 UTC. Time now 2017-Mar-24 14:08 UTC.
Position S 03°07' W 059°55'.

Length 289 m; draft 11.1 m.

Type: Cargo ship. MMSI: 351989000.

Date/timePositionNaut miles runAvg speedWind from/ knotsBaromVisibWave heightAir tempDewpointWater temp
2017-Mar-24 12:23S 03°07' W 059°55'0 0.0
2017-Mar-24 11:32S 03°07' W 059°55'0 0.0
2017-Mar-24 10:26S 03°07' W 059°55'0 0.0
2017-Mar-24 09:32S 03°07' W 059°55'0 0.0
2017-Mar-24 08:23S 03°07' W 059°55'0 0.0
2017-Mar-24 07:20S 03°07' W 059°55'0 0.0
2017-Mar-24 05:32S 03°07' W 059°55'0 0.0
2017-Mar-24 04:29S 03°07' W 059°55'0 0.0
2017-Mar-24 03:32S 03°07' W 059°55'0 0.0
2017-Mar-24 02:26S 03°07' W 059°55'0 0.0
2017-Mar-24 01:29S 03°07' W 059°55'0 0.0
2017-Mar-23 20:32S 03°07' W 059°55'0 0.0
2017-Mar-23 14:29S 03°07' W 059°55'0 0.0
2017-Mar-23 12:29S 03°07' W 059°55'0 0.0
2017-Mar-23 11:32S 03°07' W 059°55'0 0.0
2017-Mar-23 10:29S 03°07' W 059°55'0 0.0
2017-Mar-23 09:29S 03°07' W 059°55'0 0.0
2017-Mar-23 03:32S 03°07' W 059°55'0 0.0
2017-Mar-23 02:32S 03°07' W 059°55'0 0.0
2017-Mar-23 01:32S 03°07' W 059°55'0 0.0
2017-Mar-22 23:14S 03°07' W 059°55'0 0.0
2017-Mar-22 22:32S 03°07' W 059°55'0 0.0
2017-Mar-22 17:32S 03°07' W 059°55'0 0.0
2017-Mar-22 16:20S 03°07' W 059°55'0 0.0
2017-Mar-22 14:26S 03°07' W 059°55'0 0.0
2017-Mar-22 13:26S 03°07' W 059°55'0 0.0
2017-Mar-22 12:32S 03°07' W 059°55'0 0.0
2017-Mar-22 07:32S 03°07' W 059°55'0 0.0
2017-Mar-22 06:32S 03°07' W 059°55'0 0.0
2017-Mar-22 05:32S 03°07' W 059°55'0 0.0
2017-Mar-22 03:29S 03°07' W 059°55'0 0.0
2017-Mar-22 01:26S 03°07' W 059°55'0 0.0
2017-Mar-22 00:29S 03°07' W 059°55'0 0.0
2017-Mar-21 23:32S 03°07' W 059°55'0 0.0
2017-Mar-21 18:32S 03°07' W 059°55'0 0.0
2017-Mar-21 16:32S 03°07' W 059°55'0 0.0
2017-Mar-21 14:32S 03°07' W 059°55'0 0.0
2017-Mar-21 13:32S 03°07' W 059°55'0 0.0
2017-Mar-21 12:32S 03°07' W 059°55'0 0.0
2017-Mar-21 11:32S 03°07' W 059°55'0 0.1
2017-Mar-21 10:33S 03°07' W 059°55'1 1.0
2017-Mar-21 09:30S 03°08' W 059°55'0 0.0
2017-Mar-21 08:33S 03°08' W 059°55'0 0.0
2017-Mar-21 07:30S 03°08' W 059°55'0 0.0
2017-Mar-21 06:33S 03°08' W 059°55'0 0.0
2017-Mar-21 05:21S 03°08' W 059°55'0 0.0
2017-Mar-21 04:21S 03°08' W 059°55'0 0.0
2017-Mar-21 03:27S 03°08' W 059°55'0 0.0
2017-Mar-21 02:30S 03°08' W 059°55'0 0.0
2017-Mar-21 01:27S 03°08' W 059°55'0 0.0
2017-Mar-21 00:27S 03°08' W 059°55'  
2017-Mar-17 22:25S 00°14' W 051°19'910.1
2017-Mar-17 21:33S 00°08' W 051°13'8 7.1
2017-Mar-17 20:30S 00°04' W 051°07'0 0.1
2017-Mar-17 19:29S 00°04' W 051°07'0 0.2
2017-Mar-17 18:23S 00°04' W 051°07'0 0.0
2017-Mar-17 17:29S 00°04' W 051°07'0 0.0
2017-Mar-17 16:30S 00°04' W 051°07'0 0.0
2017-Mar-17 15:29S 00°04' W 051°07'0 0.0
2017-Mar-17 14:29S 00°04' W 051°07'0 0.0
2017-Mar-17 11:20S 00°04' W 051°07'0 0.1
2017-Mar-17 10:32S 00°04' W 051°07'0 0.0
2017-Mar-17 09:32S 00°04' W 051°07'0 0.0
2017-Mar-17 08:32S 00°04' W 051°07'0 0.1
2017-Mar-17 07:32S 00°04' W 051°07'0 0.1
2017-Mar-17 06:32S 00°04' W 051°07'0 0.3
2017-Mar-17 05:33S 00°04' W 051°06'5 4.8
2017-Mar-17 04:33S 00°01' W 051°02'10 9.7
2017-Mar-17 03:33N 00°07' W 050°57'9 8.5
2017-Mar-17 02:32N 00°10' W 050°49'  

Dump ship's entire track history